Time,TemperatureF,DewpointF,PressureIn,WindDirection,WindDirectionDegrees,WindSpeedMPH,WindSpeedGustMPH,Humidity,HourlyPrecipIn,Conditions,Clouds,dailyrainin,SolarRadiationWatts/m^2,SoftwareType,DateUTC
2013-03-05 02:00:00,54.0,44.0,29.97,SSW,202,9.0,-999.0,69,-99.99,,,-99.99,0.000000,,2013-03-05 08:00:00,
2013-03-05 02:52:00,54.0,44.0,29.97,SSW,202,9.0,-999.0,69,-99.99,,,-99.99,0.000000,,2013-03-05 08:52:00,
2013-03-05 03:00:00,54.0,45.0,29.95,SSW,193,9.0,-999.0,73,-99.99,,,-99.99,0.000000,,2013-03-05 09:00:00,
2013-03-05 03:52:00,54.0,45.0,29.95,SSW,193,9.0,-999.0,73,-99.99,,,-99.99,0.000000,,2013-03-05 09:52:00,
2013-03-05 04:00:00,54.0,46.0,29.95,South,189,8.0,-999.0,75,-99.99,,,-99.99,0.000000,,2013-03-05 10:00:00,
2013-03-05 04:52:00,54.0,46.0,29.95,South,189,8.0,-999.0,75,-99.99,,,-99.99,0.000000,,2013-03-05 10:52:00,
2013-03-05 05:00:00,54.0,47.0,29.93,South,191,7.0,-999.0,77,-99.99,,,-99.99,0.000000,,2013-03-05 11:00:00,
2013-03-05 05:52:00,54.0,47.0,29.93,South,191,7.0,-999.0,77,-99.99,,,-99.99,0.000000,,2013-03-05 11:52:00,
2013-03-05 06:00:00,54.0,48.0,29.95,South,186,7.0,-999.0,78,-99.99,,,-99.99,0.000000,,2013-03-05 12:00:00,
2013-03-05 06:53:00,54.0,48.0,29.95,South,186,7.0,-999.0,78,-99.99,,,-99.99,0.000000,,2013-03-05 12:53:00,
2013-03-05 07:00:00,56.0,49.0,29.92,SSW,192,8.0,-999.0,79,-99.99,,,-99.99,6.110000,,2013-03-05 13:00:00,
2013-03-05 07:52:00,56.0,49.0,29.92,SSW,192,8.0,-999.0,79,-99.99,,,-99.99,6.110000,,2013-03-05 13:52:00,
2013-03-05 08:00:00,57.0,51.0,29.92,SSW,193,6.0,-999.0,79,-99.99,,,-99.99,24.830000,,2013-03-05 14:00:00,
2013-03-05 08:52:00,57.0,51.0,29.92,SSW,193,6.0,-999.0,79,-99.99,,,-99.99,24.830000,,2013-03-05 14:52:00,
2013-03-05 09:00:00,59.0,51.0,29.89,SW,223,11.0,-999.0,76,-99.99,,,-99.99,64.529999,,2013-03-05 15:00:00,
2013-03-05 09:52:00,59.0,51.0,29.89,SW,223,11.0,-999.0,76,-99.99,,,-99.99,64.529999,,2013-03-05 15:52:00,
2013-03-05 10:00:00,60.0,53.0,29.87,SSW,209,15.0,-999.0,76,-99.99,,,-99.99,154.699997,,2013-03-05 16:00:00,
2013-03-05 10:52:00,60.0,53.0,29.87,SSW,209,15.0,-999.0,76,-99.99,,,-99.99,154.699997,,2013-03-05 16:52:00,
2013-03-05 11:00:00,60.0,53.0,29.84,SW,216,15.0,-999.0,77,-99.99,,,-99.99,77.800003,,2013-03-05 17:00:00,
2013-03-05 11:52:00,60.0,53.0,29.84,SW,216,15.0,-999.0,77,-99.99,,,-99.99,77.800003,,2013-03-05 17:52:00,
2013-03-05 12:00:00,61.0,53.0,29.76,SSW,212,14.0,-999.0,75,-99.99,,,-99.99,120.300003,,2013-03-05 18:00:00,
2013-03-05 12:53:00,61.0,53.0,29.76,SSW,212,14.0,-999.0,75,-99.99,,,-99.99,120.300003,,2013-03-05 18:53:00,
2013-03-05 13:00:00,61.0,54.0,29.71,SSW,208,13.0,-999.0,77,-99.99,,,-99.99,34.180000,,2013-03-05 19:00:00,
2013-03-05 13:52:00,61.0,54.0,29.71,SSW,208,13.0,-999.0,77,-99.99,,,-99.99,34.180000,,2013-03-05 19:52:00,
2013-03-05 14:00:00,56.0,49.0,29.80,WSW,239,17.0,-999.0,77,-99.99,,,-99.99,59.389999,,2013-03-05 20:00:00,
2013-03-05 14:52:00,56.0,49.0,29.80,WSW,239,17.0,-999.0,77,-99.99,,,-99.99,59.389999,,2013-03-05 20:52:00,
2013-03-05 15:00:00,52.0,44.0,29.83,West,267,11.0,-999.0,74,-99.99,,,-99.99,74.000000,,2013-03-05 21:00:00,
2013-03-05 15:52:00,52.0,44.0,29.83,West,267,11.0,-999.0,74,-99.99,,,-99.99,74.000000,,2013-03-05 21:52:00,
2013-03-05 16:00:00,45.0,40.0,29.90,West,270,12.0,-999.0,83,-99.99,,,-99.99,37.619999,,2013-03-05 22:00:00,
2013-03-05 16:52:00,45.0,40.0,29.90,West,270,12.0,-999.0,83,-99.99,,,-99.99,37.619999,,2013-03-05 22:52:00,
2013-03-05 17:00:00,41.0,35.0,29.98,West,272,10.0,-999.0,76,-99.99,,,-99.99,14.370000,,2013-03-05 23:00:00,
2013-03-05 17:53:00,41.0,35.0,29.98,West,272,10.0,-999.0,76,-99.99,,,-99.99,14.370000,,2013-03-05 23:53:00,
2013-03-05 18:00:00,39.0,30.0,30.03,West,277,9.0,-999.0,69,-99.99,,,-99.99,2.320000,,2013-03-06 00:00:00,
2013-03-05 18:52:00,39.0,30.0,30.03,West,277,9.0,-999.0,69,-99.99,,,-99.99,2.320000,,2013-03-06 00:52:00,
2013-03-05 19:00:00,39.0,29.0,30.05,WNW,283,6.0,-999.0,66,-99.99,,,-99.99,0.000000,,2013-03-06 01:00:00,
2013-03-05 19:52:00,39.0,29.0,30.05,WNW,283,6.0,-999.0,66,-99.99,,,-99.99,0.000000,,2013-03-06 01:52:00,
2013-03-05 20:00:00,39.0,30.0,30.03,West,277,5.0,-999.0,68,-99.99,,,-99.99,0.000000,,2013-03-06 02:00:00,
2013-03-05 20:52:00,39.0,30.0,30.03,West,277,5.0,-999.0,68,-99.99,,,-99.99,0.000000,,2013-03-06 02:52:00,
2013-03-05 21:00:00,39.0,30.0,30.02,West,264,4.0,-999.0,71,-99.99,,,-99.99,0.000000,,2013-03-06 03:00:00,
2013-03-05 21:52:00,39.0,30.0,30.02,West,264,4.0,-999.0,71,-99.99,,,-99.99,0.000000,,2013-03-06 03:52:00,
2013-03-05 22:00:00,38.0,31.0,30.01,WSW,256,5.0,-999.0,76,-99.99,,,-99.99,0.000000,,2013-03-06 04:00:00,
2013-03-05 22:52:00,38.0,31.0,30.01,WSW,256,5.0,-999.0,76,-99.99,,,-99.99,0.000000,,2013-03-06 04:52:00,